Time;durP1;ratioP1;P1;durP2;ratioP2;P2;SDS_P1;SDS_P2;PMS_P1;PMS_P2;Temp;Humidity;BMP_temperature;BMP_pressure;BME280_temperature;BME280_humidity;BME280_pressure;Samples;Min_cycle;Max_cycle;Signal;HPM_P1;HPM_P2
2023/06/18 00:01:00;;;;;;;11.85;6.55;;;;;;;24.19;40.14;101189.50;5053763;28;20036;-64
2023/06/18 00:03:26;;;;;;;9.68;6.53;;;;;;;24.11;40.76;101185.38;5053617;28;20021;-63
2023/06/18 00:05:54;;;;;;;7.88;6.13;;;;;;;23.99;41.01;101186.75;5053547;28;20033;-64
2023/06/18 00:08:21;;;;;;;10.63;6.30;;;;;;;23.81;41.60;101196.47;5053488;28;20032;-63
2023/06/18 00:10:46;;;;;;;13.63;6.25;;;;;;;23.94;41.12;101196.88;5053600;28;20021;-63
2023/06/18 00:13:12;;;;;;;10.85;6.35;;;;;;;23.92;41.20;101186.09;5053498;28;20497;-63
2023/06/18 00:15:37;;;;;;;9.05;6.40;;;;;;;23.91;41.57;101194.28;5053740;28;20039;-63
2023/06/18 00:18:03;;;;;;;12.45;6.63;;;;;;;23.86;41.06;101185.47;5053814;28;20525;-63
2023/06/18 00:20:29;;;;;;;13.48;7.55;;;;;;;23.84;41.23;101190.91;5053281;28;20029;-63
2023/06/18 00:22:54;;;;;;;12.45;8.70;;;;;;;23.70;41.89;101194.16;5053586;28;20370;-63
2023/06/18 00:25:20;;;;;;;9.43;6.38;;;;;;;23.73;41.49;101190.47;5053336;28;20501;-63
2023/06/18 00:27:46;;;;;;;10.23;6.40;;;;;;;23.64;41.86;101179.97;5053251;28;20025;-63
2023/06/18 00:30:13;;;;;;;9.27;6.70;;;;;;;23.70;41.69;101188.75;5053151;28;20111;-63
2023/06/18 00:32:38;;;;;;;9.02;6.45;;;;;;;23.63;42.16;101189.00;5053145;28;20494;-63
2023/06/18 00:35:05;;;;;;;11.20;6.63;;;;;;;23.64;42.19;101179.97;5053326;28;20044;-63
2023/06/18 00:37:32;;;;;;;8.57;6.55;;;;;;;23.61;41.95;101178.28;5053168;28;20025;-63
2023/06/18 00:39:57;;;;;;;9.43;6.70;;;;;;;23.62;41.87;101179.16;5052985;28;20475;-63
2023/06/18 00:42:23;;;;;;;11.90;6.35;;;;;;;23.53;42.42;101184.91;5053078;28;20021;-63
2023/06/18 00:44:48;;;;;;;13.25;6.80;;;;;;;23.62;42.41;101185.44;5052986;28;20056;-63
2023/06/18 00:47:17;;;;;;;13.13;6.45;;;;;;;23.63;42.34;101175.53;5052884;28;20429;-63
2023/06/18 00:49:43;;;;;;;8.50;6.43;;;;;;;23.54;42.64;101171.34;5052721;28;20498;-63
2023/06/18 00:52:12;;;;;;;10.93;6.88;;;;;;;23.48;43.00;101163.50;5052814;28;20405;-63
2023/06/18 00:54:40;;;;;;;9.80;6.63;;;;;;;23.45;43.37;101161.78;5052871;28;20100;-63
2023/06/18 00:57:08;;;;;;;10.98;6.55;;;;;;;23.37;43.73;101166.59;5053166;28;20075;-63
2023/06/18 00:59:37;;;;;;;12.43;6.93;;;;;;;23.40;43.27;101162.91;5052487;28;20509;-63
2023/06/18 01:02:03;;;;;;;11.25;7.20;;;;;;;23.34;43.98;101168.53;5052715;28;20029;-63
2023/06/18 01:04:35;;;;;;;12.20;7.60;;;;;;;23.14;44.04;101155.78;5052897;28;20029;-63
2023/06/18 01:07:02;;;;;;;10.80;7.45;;;;;;;23.23;44.05;101161.72;5053043;28;20135;-63
2023/06/18 01:09:29;;;;;;;10.48;7.60;;;;;;;23.11;44.13;101164.84;5052612;28;20025;-63
2023/06/18 01:11:55;;;;;;;11.13;7.90;;;;;;;23.10;44.48;101159.53;5052957;28;20040;-63
2023/06/18 01:14:22;;;;;;;12.60;7.32;;;;;;;23.01;45.16;101162.56;5052707;28;20025;-63
2023/06/18 01:16:49;;;;;;;9.25;7.40;;;;;;;22.82;45.59;101163.16;5052869;28;20083;-63
2023/06/18 01:19:55;;;;;;;11.90;7.53;;;;;;;22.85;44.40;101164.88;5052683;28;20025;-63
2023/06/18 01:23:02;;;;;;;9.18;7.25;;;;;;;22.79;44.66;101163.28;5051297;28;20120;-63
2023/06/18 01:25:36;;;;;;;14.23;7.68;;;;;;;22.85;44.61;101162.19;5052515;28;20029;-62
2023/06/18 01:28:07;;;;;;;11.65;7.95;;;;;;;22.92;45.10;101155.69;5052643;28;20036;-63
2023/06/18 01:30:36;;;;;;;10.65;7.55;;;;;;;22.94;44.62;101149.28;5052831;28;20029;-63
2023/06/18 01:33:03;;;;;;;9.93;7.10;;;;;;;22.97;44.43;101151.88;5052659;28;20474;-63
2023/06/18 01:35:29;;;;;;;11.10;7.90;;;;;;;22.81;45.46;101149.75;5052476;28;20470;-64
2023/06/18 01:38:13;;;;;;;10.23;7.68;;;;;;;22.79;44.47;101155.22;5052496;28;20029;-63
2023/06/18 01:40:47;;;;;;;12.25;7.68;;;;;;;22.74;44.91;101152.69;5052521;28;20032;-63
2023/06/18 01:43:36;;;;;;;10.20;7.78;;;;;;;22.66;45.21;101145.78;5052599;28;20104;-63
2023/06/18 01:46:09;;;;;;;13.80;7.90;;;;;;;22.50;45.80;101149.00;5052700;28;20033;-63
2023/06/18 01:48:43;;;;;;;16.10;8.40;;;;;;;22.59;46.07;101149.63;5052277;28;20031;-63
2023/06/18 01:51:08;;;;;;;13.05;8.20;;;;;;;22.57;46.05;101144.28;5052259;28;20029;-63
2023/06/18 01:53:37;;;;;;;14.00;8.55;;;;;;;22.49;46.11;101139.16;5034456;28;20037;-63
2023/06/18 01:56:03;;;;;;;12.88;8.02;;;;;;;22.33;47.24;101148.69;5052333;28;20027;-63
2023/06/18 01:58:33;;;;;;;15.07;8.50;;;;;;;22.28;47.24;101147.97;5052346;28;20115;-64
2023/06/18 02:00:59;;;;;;;12.27;8.43;;;;;;;22.28;47.00;101142.56;5052549;28;20090;-63
2023/06/18 02:03:25;;;;;;;11.18;9.18;;;;;;;22.31;46.70;101139.78;5052267;28;20025;-63
2023/06/18 02:05:51;;;;;;;12.25;8.45;;;;;;;22.36;46.56;101140.50;5052029;28;20025;-63
2023/06/18 02:08:17;;;;;;;18.70;8.55;;;;;;;22.37;46.31;101127.94;5052050;28;20021;-63
2023/06/18 02:10:43;;;;;;;10.55;8.63;;;;;;;22.37;46.67;101136.00;5052137;28;20021;-63
2023/06/18 02:13:09;;;;;;;16.30;8.90;;;;;;;22.22;47.10;101142.75;5052135;28;20025;-63
2023/06/18 02:15:34;;;;;;;13.13;8.38;;;;;;;22.11;47.27;101136.84;5055045;28;20029;-63
2023/06/18 02:18:00;;;;;;;10.45;8.55;;;;;;;21.96;47.67;101130.13;5055675;28;20392;-63
2023/06/18 02:20:26;;;;;;;13.05;8.68;;;;;;;21.91;47.98;101124.00;5038125;28;20036;-63
2023/06/18 02:22:52;;;;;;;12.55;8.45;;;;;;;21.97;47.88;101123.81;5037571;28;20469;-63
2023/06/18 02:25:28;;;;;;;13.95;9.55;;;;;;;21.99;47.85;101124.66;5055495;28;20395;-63
2023/06/18 02:27:56;;;;;;;14.00;9.20;;;;;;;21.99;47.78;101130.03;5055652;28;20029;-63
2023/06/18 02:30:21;;;;;;;16.48;9.18;;;;;;;22.02;48.19;101129.06;5055496;28;20036;-63
2023/06/18 02:32:48;;;;;;;15.23;9.27;;;;;;;22.06;47.94;101128.03;5055730;28;20112;-63
2023/06/18 02:35:15;;;;;;;14.05;9.50;;;;;;;22.01;47.97;101130.84;5055482;28;20059;-63
2023/06/18 02:37:41;;;;;;;12.98;8.98;;;;;;;21.94;48.18;101127.47;5055553;28;20094;-63
2023/06/18 02:40:07;;;;;;;13.90;9.80;;;;;;;21.91;48.26;101129.38;5055263;28;20037;-63
2023/06/18 02:42:32;;;;;;;14.00;9.32;;;;;;;21.87;48.24;101119.66;5055244;28;20036;-64
2023/06/18 02:44:57;;;;;;;15.63;9.48;;;;;;;21.81;48.34;101117.16;5055162;28;20025;-63
2023/06/18 02:47:23;;;;;;;15.35;9.00;;;;;;;21.74;48.54;101111.97;5055227;28;20050;-63
2023/06/18 02:49:48;;;;;;;12.73;9.63;;;;;;;21.74;48.70;101111.97;5055205;28;20032;-63
2023/06/18 02:52:14;;;;;;;13.73;9.65;;;;;;;21.59;49.15;101120.53;5055322;28;20037;-63
2023/06/18 02:54:41;;;;;;;12.02;9.57;;;;;;;21.48;49.21;101114.56;5055034;28;20029;-63
2023/06/18 02:57:08;;;;;;;12.20;9.75;;;;;;;21.41;49.52;101121.03;5055049;28;20033;-63
2023/06/18 02:59:33;;;;;;;10.68;9.15;;;;;;;21.39;49.97;101114.84;5054521;28;20048;-63
2023/06/18 03:02:00;;;;;;;12.57;9.25;;;;;;;21.34;50.19;101111.44;5055144;28;20033;-63
2023/06/18 03:04:26;;;;;;;11.70;9.20;;;;;;;21.19;50.68;101118.06;5054762;28;20033;-63
2023/06/18 03:06:51;;;;;;;14.45;9.13;;;;;;;21.20;50.78;101110.00;5054828;28;20060;-63
2023/06/18 03:09:17;;;;;;;13.20;9.43;;;;;;;21.10;50.97;101111.16;5054740;28;20033;-63
2023/06/18 03:11:42;;;;;;;16.38;9.45;;;;;;;21.07;51.40;101115.75;5055026;28;20363;-63
2023/06/18 03:14:07;;;;;;;16.80;10.02;;;;;;;20.82;52.93;101115.56;5054798;28;20037;-63
2023/06/18 03:16:33;;;;;;;11.18;9.27;;;;;;;20.69;53.30;101125.75;5054588;28;20459;-63
2023/06/18 03:18:59;;;;;;;12.10;9.63;;;;;;;20.49;54.20;101123.59;5054310;28;20037;-63
2023/06/18 03:21:24;;;;;;;14.07;9.50;;;;;;;20.44;54.53;101129.03;5054408;28;20474;-63
2023/06/18 03:23:50;;;;;;;12.00;9.30;;;;;;;20.39;54.74;101124.72;5053759;28;20059;-63
2023/06/18 03:26:16;;;;;;;13.35;10.02;;;;;;;20.38;54.05;101114.88;5052749;28;20018;-63
2023/06/18 03:28:42;;;;;;;13.45;10.15;;;;;;;20.33;54.49;101117.69;5054128;28;20025;-63
2023/06/18 03:31:08;;;;;;;18.23;11.15;;;;;;;20.34;54.45;101123.94;5035945;28;20395;-63
2023/06/18 03:33:33;;;;;;;18.60;11.20;;;;;;;20.31;54.34;101119.53;5053999;28;20115;-63
2023/06/18 03:36:02;;;;;;;14.95;9.45;;;;;;;20.39;54.73;101122.03;5053794;28;20029;-62
2023/06/18 03:38:28;;;;;;;15.18;9.80;;;;;;;20.44;54.58;101125.47;5053960;28;20037;-63
2023/06/18 03:40:53;;;;;;;15.25;9.88;;;;;;;20.53;54.16;101124.38;5054003;28;20470;-63
2023/06/18 03:43:19;;;;;;;12.43;9.93;;;;;;;20.67;53.21;101128.47;5053628;28;20470;-63
2023/06/18 03:45:44;;;;;;;14.13;10.30;;;;;;;20.68;53.28;101123.97;5053546;28;20032;-62
2023/06/18 03:48:10;;;;;;;16.35;10.57;;;;;;;20.66;53.40;101131.19;5053526;28;20035;-64
2023/06/18 03:50:35;;;;;;;15.40;10.27;;;;;;;20.55;54.29;101126.09;5053278;28;20021;-63
2023/06/18 03:53:01;;;;;;;17.33;10.40;;;;;;;20.35;55.64;101126.59;5053373;28;20055;-63
2023/06/18 03:55:26;;;;;;;14.40;9.80;;;;;;;20.19;55.54;101133.25;5053622;28;20036;-62
2023/06/18 03:57:52;;;;;;;12.57;10.27;;;;;;;20.19;55.47;101133.25;5053417;28;20052;-62
2023/06/18 04:00:17;;;;;;;14.00;10.27;;;;;;;20.25;55.20;101135.78;5053268;28;20469;-63
2023/06/18 04:02:43;;;;;;;12.10;10.20;;;;;;;20.39;54.97;101138.13;5053193;28;20386;-63
2023/06/18 04:05:10;;;;;;;15.88;10.20;;;;;;;20.44;55.07;101142.47;5053271;28;20116;-63
2023/06/18 04:07:35;;;;;;;16.48;10.20;;;;;;;20.48;55.28;101146.88;5035277;28;20037;-63
2023/06/18 04:10:01;;;;;;;16.88;10.68;;;;;;;20.55;54.97;101147.56;5053483;28;20478;-62
2023/06/18 04:12:27;;;;;;;13.25;10.52;;;;;;;20.58;55.17;101141.25;5053205;28;20435;-63
2023/06/18 04:14:52;;;;;;;15.35;9.82;;;;;;;20.60;55.57;101147.44;5052981;28;20033;-63
2023/06/18 04:17:17;;;;;;;12.70;10.02;;;;;;;20.50;56.19;101149.50;5053012;28;20108;-63
2023/06/18 04:19:43;;;;;;;13.82;10.45;;;;;;;20.46;56.75;101147.78;5052717;28;20082;-63
2023/06/18 04:22:08;;;;;;;15.45;10.23;;;;;;;20.27;57.25;101148.25;5053098;28;20021;-63
2023/06/18 04:24:34;;;;;;;15.20;10.95;;;;;;;20.23;57.67;101141.19;5034924;28;20032;-63
2023/06/18 04:26:59;;;;;;;16.67;11.68;;;;;;;20.20;57.63;101146.63;5052874;28;20040;-63
2023/06/18 04:29:24;;;;;;;17.42;11.48;;;;;;;20.21;57.57;101143.03;5052845;28;20461;-63
2023/06/18 04:31:50;;;;;;;17.83;10.90;;;;;;;20.34;57.37;101143.63;5052866;28;20025;-63
2023/06/18 04:34:16;;;;;;;15.50;12.15;;;;;;;20.43;56.60;101139.81;5052912;28;20036;-63
2023/06/18 04:36:41;;;;;;;14.70;12.18;;;;;;;20.46;56.63;101139.72;5052714;28;20064;-63
2023/06/18 04:39:07;;;;;;;15.18;11.93;;;;;;;20.41;58.03;101138.97;5052675;28;20130;-63
2023/06/18 04:41:32;;;;;;;18.58;12.02;;;;;;;20.30;58.04;101135.66;5052962;28;20378;-63
2023/06/18 04:43:58;;;;;;;16.02;11.57;;;;;;;20.26;58.49;101142.94;5052642;28;20344;-62
2023/06/18 04:46:23;;;;;;;17.92;12.10;;;;;;;20.28;57.74;101143.75;5052714;28;20029;-63
2023/06/18 04:48:49;;;;;;;16.85;12.18;;;;;;;20.41;57.50;101145.22;5052706;28;20059;-62
2023/06/18 04:51:14;;;;;;;20.48;12.75;;;;;;;20.51;56.91;101143.19;5052786;28;20025;-63
2023/06/18 04:53:40;;;;;;;20.30;11.80;;;;;;;20.60;56.97;101142.09;5052578;28;20565;-63
2023/06/18 04:56:06;;;;;;;21.67;12.70;;;;;;;20.48;57.75;101132.56;5052512;28;20155;-63
2023/06/18 04:58:36;;;;;;;21.00;13.10;;;;;;;20.56;57.48;101138.63;5052823;28;20028;-62
2023/06/18 05:01:02;;;;;;;23.13;13.63;;;;;;;20.66;56.82;101133.88;5052308;28;20045;-63
2023/06/18 05:03:28;;;;;;;18.63;12.50;;;;;;;20.69;56.33;101137.38;5034614;28;20032;-62
2023/06/18 05:05:53;;;;;;;18.35;14.63;;;;;;;20.71;56.04;101137.31;5052343;28;20033;-63
2023/06/18 05:08:19;;;;;;;21.52;14.15;;;;;;;20.69;56.42;101133.81;5052283;28;20081;-63
2023/06/18 05:10:45;;;;;;;18.40;14.75;;;;;;;20.74;56.89;101140.81;5052399;28;20072;-62
2023/06/18 05:13:12;;;;;;;21.90;15.35;;;;;;;20.88;56.18;101144.94;5052426;28;20057;-63
2023/06/18 05:15:37;;;;;;;24.42;15.48;;;;;;;20.86;55.59;101136.94;5052312;28;20025;-63
2023/06/18 05:18:03;;;;;;;18.55;15.73;;;;;;;20.95;54.58;101142.03;5034614;28;20037;-63
2023/06/18 05:20:28;;;;;;;20.35;15.38;;;;;;;21.08;54.41;101147.09;5052218;28;20029;-63
2023/06/18 05:22:54;;;;;;;21.60;15.63;;;;;;;21.18;53.76;101148.56;5052431;28;20116;-63
2023/06/18 05:25:19;;;;;;;18.48;15.13;;;;;;;21.36;52.64;101148.06;5052191;28;20029;-62
2023/06/18 05:27:44;;;;;;;19.52;16.02;;;;;;;21.32;52.91;101151.78;5052597;28;20112;-63
2023/06/18 05:30:10;;;;;;;22.73;15.52;;;;;;;21.32;53.10;101156.28;5052237;28;20124;-63
2023/06/18 05:32:36;;;;;;;17.52;15.57;;;;;;;21.33;52.28;101160.75;5052338;28;20075;-63
2023/06/18 05:35:01;;;;;;;21.92;16.10;;;;;;;21.47;52.48;101158.53;5052469;28;20079;-63
2023/06/18 05:37:26;;;;;;;27.58;16.33;;;;;;;21.60;52.38;101161.75;5052085;28;20108;-63
2023/06/18 05:39:52;;;;;;;19.55;16.88;;;;;;;21.70;52.19;101153.31;5052322;28;20429;-62
2023/06/18 05:42:18;;;;;;;22.10;16.48;;;;;;;22.01;52.01;101165.81;5052085;28;20385;-63
2023/06/18 05:44:43;;;;;;;23.58;16.20;;;;;;;22.29;49.90;101160.47;5051991;28;20017;-63
2023/06/18 05:47:08;;;;;;;21.52;16.02;;;;;;;22.53;50.21;101169.56;5052066;28;20078;-62
2023/06/18 05:49:34;;;;;;;22.45;15.48;;;;;;;22.74;48.90;101167.97;5053049;28;20021;-63
2023/06/18 05:52:00;;;;;;;19.05;15.50;;;;;;;22.89;48.92;101161.16;5055796;28;20177;-63
2023/06/18 05:54:26;;;;;;;21.90;16.67;;;;;;;23.06;49.09;101164.16;5055763;28;20123;-63
2023/06/18 05:56:51;;;;;;;23.23;15.45;;;;;;;23.12;48.34;101163.03;5055647;28;20036;-63
2023/06/18 05:59:17;;;;;;;22.98;15.32;;;;;;;23.20;46.94;101163.63;5055492;28;20028;-63
2023/06/18 06:01:43;;;;;;;21.05;14.40;;;;;;;23.30;46.40;101170.47;5055697;28;20029;-63
2023/06/18 06:04:08;;;;;;;15.57;13.88;;;;;;;23.24;45.59;101158.06;5055517;28;20040;-63
2023/06/18 06:06:33;;;;;;;19.90;14.15;;;;;;;23.24;44.94;101158.06;5055499;28;20463;-63
2023/06/18 06:09:00;;;;;;;20.58;12.77;;;;;;;23.22;44.24;101162.66;5055453;28;20061;-62
2023/06/18 06:11:25;;;;;;;21.83;13.88;;;;;;;23.09;44.89;101169.44;5055280;28;20044;-63
2023/06/18 06:13:51;;;;;;;17.20;13.00;;;;;;;23.24;44.34;101165.28;5055412;28;20028;-63
2023/06/18 06:16:16;;;;;;;19.40;13.45;;;;;;;23.29;44.53;101174.09;5055200;28;20459;-63
2023/06/18 06:18:42;;;;;;;20.38;13.60;;;;;;;23.45;44.44;101167.19;5055332;28;20032;-63
2023/06/18 06:21:07;;;;;;;20.75;13.48;;;;;;;23.63;44.53;101170.13;5055302;28;20025;-63
2023/06/18 06:23:33;;;;;;;16.17;13.38;;;;;;;23.81;44.58;101163.16;5054991;28;20025;-63
2023/06/18 06:25:59;;;;;;;19.58;12.45;;;;;;;24.01;44.87;101170.50;5037115;28;20108;-63
2023/06/18 06:28:25;;;;;;;19.02;11.52;;;;;;;24.13;43.52;101170.88;5055044;28;20105;-63
2023/06/18 06:30:50;;;;;;;16.98;12.35;;;;;;;24.12;43.49;101171.81;5055453;28;20436;-63
2023/06/18 06:33:16;;;;;;;16.95;11.65;;;;;;;24.18;43.13;101171.56;5055012;28;20032;-63
2023/06/18 06:35:41;;;;;;;18.10;11.20;;;;;;;24.22;42.78;101177.72;5054681;28;20045;-63
2023/06/18 06:38:08;;;;;;;21.70;11.38;;;;;;;24.12;42.55;101176.34;5055019;28;20061;-63
2023/06/18 06:40:34;;;;;;;17.98;11.48;;;;;;;24.08;41.98;101177.41;5037143;28;20406;-64
2023/06/18 06:42:59;;;;;;;16.45;10.77;;;;;;;24.08;42.17;101183.69;5055063;28;20471;-65
2023/06/18 06:45:27;;;;;;;13.90;10.73;;;;;;;24.02;43.64;101193.84;5054935;28;20032;-64
2023/06/18 06:47:52;;;;;;;17.05;10.50;;;;;;;23.96;42.46;101230.06;5054773;28;20123;-64
2023/06/18 06:50:18;;;;;;;16.52;10.68;;;;;;;23.73;41.66;101229.13;5054484;28;20108;-64
2023/06/18 06:52:43;;;;;;;15.82;10.57;;;;;;;23.54;41.82;101224.44;5054571;28;20029;-64
2023/06/18 06:55:08;;;;;;;17.02;10.43;;;;;;;23.43;42.16;101223.03;5054615;28;20032;-64
2023/06/18 06:57:34;;;;;;;13.90;9.60;;;;;;;23.44;42.44;101230.16;5054896;28;20107;-64
2023/06/18 06:59:59;;;;;;;14.05;9.75;;;;;;;23.37;41.93;101230.44;5054098;28;20560;-63
2023/06/18 07:02:25;;;;;;;11.85;8.45;;;;;;;23.45;42.10;101225.66;5054650;28;20083;-64
2023/06/18 07:04:50;;;;;;;12.15;9.35;;;;;;;23.54;42.24;101219.03;5054284;28;20124;-63
2023/06/18 07:07:16;;;;;;;12.43;8.98;;;;;;;23.64;42.19;101231.25;5054560;28;20044;-64
2023/06/18 07:09:41;;;;;;;12.35;9.70;;;;;;;23.68;41.48;101224.81;5054369;28;20029;-64
2023/06/18 07:12:07;;;;;;;13.18;8.90;;;;;;;23.82;41.09;101227.91;5054318;28;20025;-63
2023/06/18 07:14:33;;;;;;;15.15;8.52;;;;;;;23.91;41.92;101223.97;5054433;28;20033;-63
2023/06/18 07:16:58;;;;;;;11.57;7.70;;;;;;;23.89;38.80;101228.53;5036240;28;20025;-63
2023/06/18 07:19:24;;;;;;;15.15;6.68;;;;;;;24.01;38.44;101233.47;5054018;28;20083;-63
2023/06/18 07:21:53;;;;;;;10.18;6.82;;;;;;;23.94;37.89;101229.25;5054100;28;20024;-63
2023/06/18 07:24:20;;;;;;;9.48;5.97;;;;;;;24.02;37.80;101223.53;5053893;28;20033;-64
2023/06/18 07:26:45;;;;;;;11.25;6.07;;;;;;;24.13;37.79;101218.59;5053940;28;20033;-65
2023/06/18 07:29:11;;;;;;;8.48;6.40;;;;;;;24.21;38.50;101225.47;5054293;28;20025;-64
2023/06/18 07:31:36;;;;;;;10.18;5.80;;;;;;;24.26;37.61;101227.09;5054262;28;20480;-64
2023/06/18 07:34:02;;;;;;;10.05;5.90;;;;;;;24.33;37.72;101221.41;5054048;28;20155;-64
2023/06/18 07:36:27;;;;;;;14.30;6.13;;;;;;;24.33;37.97;101220.53;5054090;28;20490;-64
2023/06/18 07:38:52;;;;;;;11.60;6.28;;;;;;;24.38;38.70;101214.00;5054036;28;20108;-66
2023/06/18 07:41:18;;;;;;;9.73;6.20;;;;;;;24.51;37.91;101222.50;5035974;28;20471;-63
2023/06/18 07:43:43;;;;;;;9.38;6.18;;;;;;;24.64;37.96;101223.75;5054052;28;20033;-64
2023/06/18 07:46:09;;;;;;;10.77;6.25;;;;;;;24.60;39.96;101226.63;5035548;28;20478;-64
2023/06/18 07:48:35;;;;;;;11.73;7.45;;;;;;;24.59;38.84;101222.19;5053877;28;20106;-64
2023/06/18 07:51:00;;;;;;;12.70;6.88;;;;;;;24.68;39.06;101221.78;5053325;28;20021;-64
2023/06/18 07:53:25;;;;;;;9.60;7.00;;;;;;;24.88;39.64;101216.44;5053605;28;20025;-64
2023/06/18 07:55:51;;;;;;;10.30;6.88;;;;;;;25.01;39.03;101213.16;5053726;28;20047;-63
2023/06/18 07:58:16;;;;;;;11.18;6.65;;;;;;;25.09;38.77;101220.03;5053351;28;20025;-64
2023/06/18 08:00:42;;;;;;;9.48;6.90;;;;;;;25.24;39.13;101221.19;5053284;28;20055;-63
2023/06/18 08:03:07;;;;;;;11.52;6.80;;;;;;;25.27;39.96;101212.06;5053344;28;20029;-64
2023/06/18 08:05:32;;;;;;;14.35;7.30;;;;;;;25.42;38.56;101214.09;5053233;28;20103;-64
2023/06/18 08:07:58;;;;;;;10.20;6.88;;;;;;;25.41;38.88;101213.22;5053262;28;20386;-63
2023/06/18 08:10:23;;;;;;;10.63;7.53;;;;;;;25.55;38.89;101217.13;5035232;28;20059;-63
2023/06/18 08:12:49;;;;;;;11.82;6.85;;;;;;;25.61;38.60;101211.41;5052569;28;20033;-63
2023/06/18 08:15:14;;;;;;;12.23;7.13;;;;;;;25.58;38.80;101204.31;5053267;28;20033;-63
2023/06/18 08:17:40;;;;;;;11.68;7.38;;;;;;;25.56;40.33;101202.63;5053266;28;20462;-64
2023/06/18 08:20:06;;;;;;;12.80;8.20;;;;;;;25.71;39.51;101204.63;5052806;28;20095;-63
2023/06/18 08:22:31;;;;;;;13.77;7.75;;;;;;;25.86;39.52;101211.19;5053035;28;20029;-63
2023/06/18 08:24:57;;;;;;;14.00;7.80;;;;;;;26.05;38.47;101206.66;5052799;28;20036;-64
2023/06/18 08:27:22;;;;;;;10.35;7.45;;;;;;;26.12;38.86;101201.81;5052968;28;20028;-63
2023/06/18 08:29:48;;;;;;;9.75;7.43;;;;;;;26.26;38.49;101202.03;5052869;28;20125;-63
2023/06/18 08:32:13;;;;;;;11.13;7.75;;;;;;;26.31;39.40;101210.81;5052363;28;20041;-63
2023/06/18 08:34:42;;;;;;;9.55;6.95;;;;;;;26.30;39.61;101200.06;5034953;28;20036;-64
2023/06/18 08:37:09;;;;;;;13.82;7.85;;;;;;;26.37;39.00;101194.22;5052684;28;20482;-63
2023/06/18 08:39:35;;;;;;;14.75;7.85;;;;;;;26.40;39.21;101199.50;5052953;28;20098;-64
2023/06/18 08:42:01;;;;;;;11.07;7.32;;;;;;;26.44;39.34;101193.03;5052586;28;20036;-63
2023/06/18 08:44:27;;;;;;;14.93;8.00;;;;;;;26.44;39.16;101194.84;5052510;28;20029;-63
2023/06/18 08:47:00;;;;;;;14.35;8.52;;;;;;;26.37;39.81;101196.94;5052828;28;20037;-64
2023/06/18 08:49:27;;;;;;;11.10;8.10;;;;;;;26.37;40.72;101201.50;5052309;28;20025;-64
2023/06/18 08:51:54;;;;;;;13.52;8.20;;;;;;;26.29;39.70;101198.28;5052771;28;20052;-63
2023/06/18 08:54:22;;;;;;;16.60;7.78;;;;;;;26.21;40.63;101199.56;5052477;28;20036;-64
2023/06/18 08:56:54;;;;;;;11.52;7.30;;;;;;;26.15;40.27;101191.69;5052559;28;20048;-63
2023/06/18 08:59:21;;;;;;;10.70;7.25;;;;;;;26.14;40.45;101200.78;5052579;28;20025;-64
2023/06/18 09:01:48;;;;;;;13.77;7.43;;;;;;;26.10;41.14;101198.31;5052427;28;20465;-63
2023/06/18 09:04:14;;;;;;;12.75;7.40;;;;;;;26.01;41.16;101196.03;5052325;28;20087;-64
2023/06/18 09:06:41;;;;;;;14.82;7.45;;;;;;;25.94;41.55;101203.56;5052406;28;20487;-64
2023/06/18 09:09:06;;;;;;;8.23;6.90;;;;;;;25.92;41.53;101200.94;5052545;28;20363;-64
2023/06/18 09:11:33;;;;;;;10.23;6.78;;;;;;;25.89;40.54;101203.78;5052256;28;20553;-63
2023/06/18 09:13:58;;;;;;;8.93;6.78;;;;;;;25.82;40.99;101212.28;5052536;28;20029;-64
2023/06/18 09:16:24;;;;;;;10.65;6.65;;;;;;;25.85;41.19;101204.00;5052280;28;20029;-63
2023/06/18 09:18:49;;;;;;;12.88;6.78;;;;;;;25.81;41.90;101205.09;5052230;28;20025;-63
2023/06/18 09:21:34;;;;;;;12.57;7.25;;;;;;;25.84;41.19;101203.13;5052019;28;20064;-64
2023/06/18 09:24:00;;;;;;;13.85;7.20;;;;;;;25.88;41.64;101203.88;5054046;28;20386;-62
2023/06/18 09:26:26;;;;;;;12.40;7.38;;;;;;;25.86;41.82;101203.06;5055592;28;20036;-62
2023/06/18 09:28:54;;;;;;;13.77;7.50;;;;;;;25.94;41.88;101207.16;5056135;28;20029;-64
2023/06/18 09:31:26;;;;;;;12.32;7.15;;;;;;;25.97;41.79;101207.00;5056085;28;20029;-64
2023/06/18 09:33:51;;;;;;;9.57;7.65;;;;;;;25.97;42.01;101203.44;5056260;28;20029;-62
2023/06/18 09:36:17;;;;;;;18.02;7.57;;;;;;;26.04;41.73;101212.13;5056239;28;20167;-62
2023/06/18 09:38:42;;;;;;;12.82;7.40;;;;;;;26.03;42.07;101200.41;5055882;28;20486;-63
2023/06/18 09:41:14;;;;;;;9.75;7.25;;;;;;;25.94;42.55;101201.75;5056365;28;20032;-62
2023/06/18 09:43:43;;;;;;;10.93;7.20;;;;;;;25.86;43.16;101197.63;5056149;28;20409;-62
2023/06/18 09:46:09;;;;;;;13.80;7.45;;;;;;;25.83;43.28;101200.50;5055850;28;20027;-63
2023/06/18 09:48:36;;;;;;;12.45;8.20;;;;;;;25.83;44.05;101198.69;5046858;28;20025;-62
2023/06/18 09:51:01;;;;;;;15.95;7.88;;;;;;;25.70;44.35;101211.88;5035978;28;20060;-63
2023/06/18 09:53:27;;;;;;;13.57;8.00;;;;;;;25.73;45.61;101203.59;5035744;28;20415;-63
2023/06/18 09:55:52;;;;;;;14.80;8.05;;;;;;;25.73;45.38;101200.88;5035660;28;20386;-63
2023/06/18 09:58:18;;;;;;;13.18;8.27;;;;;;;25.73;46.86;101194.59;5035667;28;20060;-63
2023/06/18 10:01:02;;;;;;;14.70;8.27;;;;;;;25.69;47.10;101201.09;5035333;28;20069;-63
2023/06/18 10:03:28;;;;;;;13.10;8.00;;;;;;;25.64;50.18;101197.72;5035680;28;20391;-64
2023/06/18 10:05:55;;;;;;;16.60;8.32;;;;;;;25.58;50.00;101198.91;5035270;28;20038;-63
2023/06/18 10:08:21;;;;;;;16.83;8.77;;;;;;;25.60;49.94;101194.28;5035694;28;20037;-63
2023/06/18 10:10:47;;;;;;;15.32;9.45;;;;;;;25.60;50.36;101196.13;5035475;28;20497;-63
2023/06/18 10:13:13;;;;;;;19.20;9.25;;;;;;;25.46;52.19;101188.66;5035412;28;20567;-63
2023/06/18 10:15:40;;;;;;;13.38;9.23;;;;;;;25.45;53.71;101176.94;5017763;28;20355;-63
2023/06/18 10:18:09;;;;;;;15.30;9.23;;;;;;;25.51;52.91;101172.19;5035266;28;20048;-64
2023/06/18 10:20:35;;;;;;;14.50;9.20;;;;;;;25.47;52.63;101171.44;5035055;28;20021;-64
2023/06/18 10:23:06;;;;;;;16.92;9.00;;;;;;;25.55;53.19;101169.28;5035057;28;20029;-64
2023/06/18 10:25:35;;;;;;;16.70;9.93;;;;;;;25.49;52.76;101174.97;5035095;28;20110;-64
2023/06/18 10:28:00;;;;;;;13.93;9.82;;;;;;;25.48;56.27;101167.78;5034960;28;20087;-63
2023/06/18 10:30:27;;;;;;;16.35;9.75;;;;;;;25.45;59.12;101157.13;5034693;28;20033;-63
2023/06/18 10:32:58;;;;;;;17.30;9.48;;;;;;;25.42;55.95;101160.84;5034996;28;20033;-65
2023/06/18 10:35:24;;;;;;;14.45;9.30;;;;;;;25.38;57.05;101159.22;5034602;28;20030;-65
2023/06/18 10:37:51;;;;;;;16.58;9.77;;;;;;;25.36;54.95;101150.31;5041098;28;20033;-64
2023/06/18 10:40:16;;;;;;;20.02;9.60;;;;;;;25.36;57.74;101141.31;5043918;28;20025;-64
2023/06/18 10:42:47;;;;;;;14.48;9.95;;;;;;;25.36;57.50;101144.91;5037607;28;20153;-63
2023/06/18 10:45:17;;;;;;;14.27;9.70;;;;;;;25.36;55.80;101144.03;5034572;28;20045;-64
2023/06/18 10:47:43;;;;;;;15.10;9.27;;;;;;;25.42;53.44;101141.91;5035063;28;20064;-64
2023/06/18 10:50:12;;;;;;;14.02;9.23;;;;;;;25.39;55.52;101131.22;5034581;28;20022;-63
2023/06/18 10:52:49;;;;;;;16.13;9.77;;;;;;;25.48;54.96;101141.63;5034856;28;20065;-63
2023/06/18 10:55:20;;;;;;;13.00;8.90;;;;;;;25.55;51.00;101135.94;5034496;28;20021;-63
2023/06/18 10:57:48;;;;;;;14.65;9.15;;;;;;;25.65;51.98;101148.97;5034931;28;20387;-63
2023/06/18 11:00:19;;;;;;;13.73;8.95;;;;;;;25.84;52.04;101149.00;5034337;28;20112;-63
2023/06/18 11:02:47;;;;;;;14.38;8.45;;;;;;;26.01;52.21;101145.47;5034566;28;20033;-63
2023/06/18 11:05:31;;;;;;;11.93;8.48;;;;;;;26.10;49.73;101161.25;5034529;28;20029;-63
2023/06/18 11:08:00;;;;;;;9.60;8.10;;;;;;;26.33;47.80;101157.41;5034438;28;20048;-63
2023/06/18 11:10:47;;;;;;;10.52;8.15;;;;;;;26.37;48.50;101153.59;5034450;28;20029;-63
2023/06/18 11:13:13;;;;;;;10.10;7.88;;;;;;;26.49;48.78;101141.28;5034760;28;20038;-64